Time;durP1;ratioP1;P1;durP2;ratioP2;P2;SDS_P1;SDS_P2;PMS_P1;PMS_P2;Temp;Humidity;BMP_temperature;BMP_pressure;BME280_temperature;BME280_humidity;BME280_pressure;Samples;Min_cycle;Max_cycle;Signal;HPM_P1;HPM_P2
2022/09/08 00:00:28;;;;;;;19.87;18.33;;;21.10;99.90;;;;;;5012685;28;20457;-66
2022/09/08 00:02:54;;;;;;;18.77;17.43;;;21.00;99.90;;;;;;5013564;28;20186;-66
2022/09/08 00:05:24;;;;;;;18.60;17.23;;;21.10;99.90;;;;;;5010469;28;20326;-65
2022/09/08 00:07:53;;;;;;;18.27;16.73;;;21.10;99.90;;;;;;5013310;28;20441;-65
2022/09/08 00:10:19;;;;;;;18.07;16.40;;;21.10;99.90;;;;;;5012444;28;20413;-65
2022/09/08 00:12:47;;;;;;;17.63;16.33;;;21.10;99.90;;;;;;5013156;28;20413;-66
2022/09/08 00:15:14;;;;;;;18.60;16.90;;;21.10;99.90;;;;;;5012803;28;20740;-66
2022/09/08 00:17:40;;;;;;;19.37;17.80;;;21.10;99.90;;;;;;5012007;28;20426;-65
2022/09/08 00:20:07;;;;;;;19.40;17.80;;;21.10;99.90;;;;;;5012622;28;20446;-65
2022/09/08 00:22:33;;;;;;;17.10;15.70;;;21.10;99.90;;;;;;5010589;28;21000;-65
2022/09/08 00:24:59;;;;;;;19.43;17.77;;;21.00;99.90;;;;;;5013010;28;20434;-65
2022/09/08 00:27:25;;;;;;;21.47;19.37;;;21.00;99.90;;;;;;4994776;28;20190;-65
2022/09/08 00:29:51;;;;;;;19.50;17.73;;;21.00;99.90;;;;;;5012888;28;20183;-65
2022/09/08 00:32:19;;;;;;;19.40;17.80;;;20.90;99.90;;;;;;5012388;28;20888;-65
2022/09/08 00:34:45;;;;;;;18.13;16.43;;;20.60;99.90;;;;;;5012889;28;20179;-65
2022/09/08 00:37:11;;;;;;;17.00;15.70;;;20.50;99.90;;;;;;5027178;28;20825;-72
2022/09/08 00:39:37;;;;;;;16.67;15.20;;;20.10;99.90;;;;;;5011743;28;20458;-65
2022/09/08 00:42:03;;;;;;;15.07;14.07;;;19.80;99.90;;;;;;5011995;28;20488;-65
2022/09/08 00:44:51;;;;;;;15.90;14.40;;;19.80;99.90;;;;;;5012296;28;20525;-65
2022/09/08 00:47:22;;;;;;;15.47;14.27;;;19.70;99.90;;;;;;5011981;28;20398;-65
2022/09/08 00:49:56;;;;;;;17.13;15.73;;;19.60;99.90;;;;;;5012838;28;20828;-65
2022/09/08 00:52:23;;;;;;;17.10;15.70;;;19.70;99.90;;;;;;5011233;28;20780;-65
2022/09/08 00:54:49;;;;;;;14.93;13.73;;;19.70;99.90;;;;;;5012737;28;20406;-65
2022/09/08 00:57:35;;;;;;;16.07;14.77;;;19.90;99.90;;;;;;4970778;28;20814;-65
2022/09/08 01:00:02;;;;;;;15.43;14.17;;;20.00;99.90;;;;;;4970575;28;20550;-65
2022/09/08 01:02:29;;;;;;;15.90;14.50;;;20.10;99.90;;;;;;4970839;28;20220;-65
2022/09/08 01:05:17;;;;;;;16.53;15.33;;;20.20;99.90;;;;;;4971262;28;20479;-65
2022/09/08 01:13:47;;;;;;;15.43;14.33;;;20.40;99.90;;;;;;4970740;28;20447;-65
2022/09/08 01:16:13;;;;;;;15.40;14.20;;;20.50;99.90;;;;;;4971205;28;20412;-65
2022/09/08 01:18:39;;;;;;;14.67;13.47;;;20.60;99.90;;;;;;4937654;28;20211;-65
2022/09/08 01:21:23;;;;;;;14.17;13.00;;;20.60;99.90;;;;;;4970245;28;20192;-65
2022/09/08 01:24:07;;;;;;;15.53;14.17;;;20.60;99.90;;;;;;4975027;28;20492;-65
2022/09/08 01:26:45;;;;;;;16.03;14.63;;;20.60;99.90;;;;;;4974324;28;20423;-65
2022/09/08 01:29:14;;;;;;;17.00;15.70;;;20.70;99.90;;;;;;5004758;28;20540;-65
2022/09/08 01:31:43;;;;;;;15.77;14.57;;;20.70;99.90;;;;;;5015847;28;20479;-65
2022/09/08 01:34:10;;;;;;;17.47;15.87;;;20.70;99.90;;;;;;5016090;28;20448;-65
2022/09/08 01:36:35;;;;;;;18.20;16.60;;;20.70;99.90;;;;;;5014894;28;20951;-65
2022/09/08 01:39:02;;;;;;;18.47;16.87;;;20.70;99.90;;;;;;4998419;28;20608;-65
2022/09/08 01:41:27;;;;;;;19.50;17.80;;;20.70;99.90;;;;;;5013176;28;20224;-65
2022/09/08 01:43:53;;;;;;;18.53;17.03;;;20.70;99.90;;;;;;5014133;28;20517;-65
2022/09/08 01:46:19;;;;;;;19.43;17.53;;;20.70;99.90;;;;;;5013295;28;20187;-65
2022/09/08 01:48:45;;;;;;;17.57;16.07;;;20.60;99.90;;;;;;5015834;28;20198;-65
2022/09/08 01:51:11;;;;;;;18.43;16.87;;;20.60;99.90;;;;;;5015867;28;20857;-65
2022/09/08 01:53:37;;;;;;;19.20;17.60;;;20.60;99.90;;;;;;5014838;28;20202;-65
2022/09/08 01:56:04;;;;;;;18.60;17.10;;;20.60;99.90;;;;;;5015604;28;20416;-65
2022/09/08 01:58:31;;;;;;;18.83;17.33;;;20.60;99.90;;;;;;5014131;28;20237;-65
2022/09/08 02:00:57;;;;;;;18.23;16.77;;;20.50;99.90;;;;;;5015369;28;20446;-65
2022/09/08 02:03:23;;;;;;;19.93;18.23;;;20.40;99.90;;;;;;5013212;28;20488;-65
2022/09/08 02:05:49;;;;;;;20.00;18.33;;;20.40;99.90;;;;;;5015449;28;20425;-65
2022/09/08 02:08:15;;;;;;;19.13;17.13;;;20.40;99.90;;;;;;5014711;28;20438;-65
2022/09/08 02:10:40;;;;;;;19.00;17.17;;;20.50;99.90;;;;;;4997142;28;20266;-65
2022/09/08 02:13:06;;;;;;;19.00;17.40;;;20.60;99.90;;;;;;5015348;28;20225;-65
2022/09/08 02:15:32;;;;;;;18.67;17.20;;;20.60;99.90;;;;;;5013627;28;20229;-65
2022/09/08 02:17:59;;;;;;;19.27;17.77;;;20.60;99.90;;;;;;5013418;28;20941;-65
2022/09/08 02:20:26;;;;;;;20.17;18.57;;;20.60;99.90;;;;;;5014539;28;20206;-65
2022/09/08 02:22:54;;;;;;;17.77;16.40;;;20.70;99.90;;;;;;5015161;28;20489;-65
2022/09/08 02:25:21;;;;;;;18.07;16.67;;;20.70;99.90;;;;;;5014506;28;20889;-65
2022/09/08 02:27:50;;;;;;;18.00;16.50;;;20.70;99.90;;;;;;5014065;28;20777;-65
2022/09/08 02:30:16;;;;;;;17.93;16.53;;;20.80;99.90;;;;;;5014760;28;20967;-65
2022/09/08 02:32:41;;;;;;;18.40;17.07;;;20.80;99.90;;;;;;5014010;28;20471;-65
2022/09/08 02:35:08;;;;;;;17.43;16.00;;;20.80;99.90;;;;;;5005553;28;20184;-65
2022/09/08 02:37:33;;;;;;;18.47;16.97;;;20.80;99.90;;;;;;4994813;28;20172;-65
2022/09/08 02:40:00;;;;;;;16.93;15.63;;;20.80;99.90;;;;;;4995178;28;20470;-65
2022/09/08 02:42:26;;;;;;;16.37;15.07;;;20.90;99.90;;;;;;4996398;28;20900;-65
2022/09/08 02:44:52;;;;;;;15.60;14.30;;;20.90;99.90;;;;;;4997387;28;20844;-65
2022/09/08 02:47:18;;;;;;;17.47;16.07;;;20.90;99.90;;;;;;5013847;28;20512;-65
2022/09/08 02:49:43;;;;;;;15.50;14.30;;;20.90;99.90;;;;;;4996636;28;20202;-65
2022/09/08 02:52:11;;;;;;;16.17;14.70;;;20.90;99.90;;;;;;5014038;28;20207;-65
2022/09/08 02:54:37;;;;;;;16.70;15.43;;;20.90;99.90;;;;;;5012962;28;20266;-65
2022/09/08 02:57:03;;;;;;;16.10;14.90;;;20.90;99.90;;;;;;5014472;28;20446;-65
2022/09/08 02:59:29;;;;;;;16.13;15.00;;;20.90;99.90;;;;;;5012774;28;20450;-65
2022/09/08 03:01:56;;;;;;;16.63;15.37;;;20.90;99.90;;;;;;5013460;28;20444;-65
2022/09/08 03:04:21;;;;;;;15.67;14.47;;;20.90;99.90;;;;;;5013385;28;20179;-66
2022/09/08 03:06:47;;;;;;;16.63;15.27;;;20.90;99.90;;;;;;5013274;28;20850;-65
2022/09/08 03:09:13;;;;;;;15.53;14.33;;;20.90;99.90;;;;;;5013174;28;20186;-65
2022/09/08 03:11:38;;;;;;;15.97;14.67;;;20.90;99.90;;;;;;5012800;28;20187;-65
2022/09/08 03:14:04;;;;;;;15.80;14.70;;;20.90;99.90;;;;;;5014064;28;20273;-65
2022/09/08 03:16:30;;;;;;;13.73;12.83;;;20.90;99.90;;;;;;5013550;28;20183;-66
2022/09/08 03:18:55;;;;;;;13.53;12.53;;;20.90;99.90;;;;;;5014167;28;20647;-65
2022/09/08 03:21:22;;;;;;;13.00;12.00;;;20.90;99.90;;;;;;5011872;28;20186;-73
2022/09/08 03:23:48;;;;;;;12.50;11.70;;;20.90;99.90;;;;;;5014419;28;20229;-65
2022/09/08 03:26:21;;;;;;;12.37;11.37;;;20.90;99.90;;;;;;5014001;28;20433;-65
2022/09/08 03:28:48;;;;;;;13.13;12.23;;;20.90;99.90;;;;;;5013903;28;20782;-65
2022/09/08 03:31:16;;;;;;;12.23;11.40;;;21.00;99.90;;;;;;5013666;28;20913;-65
2022/09/08 03:34:02;;;;;;;13.80;12.80;;;21.00;99.90;;;;;;4972645;28;20459;-65
2022/09/08 03:36:28;;;;;;;14.40;13.20;;;21.00;99.90;;;;;;4984457;28;20510;-66
2022/09/08 03:38:54;;;;;;;14.00;13.10;;;21.00;99.90;;;;;;4990855;28;20223;-65
2022/09/08 03:41:20;;;;;;;14.50;13.40;;;21.00;99.90;;;;;;4992050;28;20669;-65
2022/09/08 03:43:49;;;;;;;16.33;15.10;;;21.00;99.90;;;;;;4990375;28;20477;-65
2022/09/08 03:46:15;;;;;;;17.10;15.80;;;21.00;99.90;;;;;;4975336;28;20513;-65
2022/09/08 03:48:41;;;;;;;18.13;16.73;;;20.90;99.90;;;;;;4991031;28;20426;-65
2022/09/08 03:51:22;;;;;;;18.30;16.70;;;20.90;99.90;;;;;;4990528;28;20444;-65
2022/09/08 03:53:49;;;;;;;18.23;16.80;;;20.80;99.90;;;;;;4991714;28;20415;-65
2022/09/08 03:56:15;;;;;;;15.83;14.43;;;20.90;99.90;;;;;;4991301;28;20430;-67
2022/09/08 03:58:41;;;;;;;16.73;15.40;;;20.90;99.90;;;;;;4991078;28;20750;-65
2022/09/08 04:01:13;;;;;;;16.40;15.20;;;20.90;99.90;;;;;;4991495;28;20180;-65
2022/09/08 04:03:39;;;;;;;15.40;14.30;;;20.90;99.90;;;;;;4990845;28;20919;-65
2022/09/08 04:06:05;;;;;;;16.47;15.20;;;20.90;99.90;;;;;;5010669;28;20445;-65
2022/09/08 04:08:32;;;;;;;13.90;12.90;;;21.00;99.90;;;;;;5012637;28;20945;-65
2022/09/08 04:10:58;;;;;;;13.00;12.10;;;21.00;99.90;;;;;;5013239;28;20410;-66
2022/09/08 04:13:24;;;;;;;14.60;13.07;;;20.90;99.90;;;;;;5013280;28;20410;-66
2022/09/08 04:15:50;;;;;;;11.47;10.57;;;20.90;99.90;;;;;;5013184;28;20422;-65
2022/09/08 04:18:16;;;;;;;11.57;10.57;;;20.90;99.90;;;;;;5012774;28;20899;-66
2022/09/08 04:20:41;;;;;;;8.80;8.20;;;20.90;99.90;;;;;;5010180;28;20540;-67
2022/09/08 04:23:08;;;;;;;6.37;5.77;;;20.80;99.90;;;;;;5011462;28;20225;-66
2022/09/08 04:25:34;;;;;;;6.37;5.83;;;20.40;99.90;;;;;;5011918;28;20182;-65
2022/09/08 04:28:00;;;;;;;6.20;5.80;;;20.10;99.90;;;;;;5011761;28;20426;-66
2022/09/08 04:30:26;;;;;;;7.60;6.90;;;19.90;99.90;;;;;;5012467;28;20502;-72
2022/09/08 04:32:52;;;;;;;7.90;7.20;;;19.90;99.90;;;;;;4992229;28;20202;-66
2022/09/08 04:35:18;;;;;;;7.50;6.90;;;19.90;99.90;;;;;;5012334;28;20713;-65
2022/09/08 04:37:44;;;;;;;16.83;13.87;;;19.90;99.90;;;;;;5008759;28;20469;-66
2022/09/08 04:40:10;;;;;;;17.60;12.50;;;19.80;99.90;;;;;;5010668;28;20221;-66
2022/09/08 04:42:36;;;;;;;7.27;6.63;;;19.60;99.90;;;;;;5010804;28;20406;-66
2022/09/08 04:45:02;;;;;;;5.83;5.33;;;19.50;99.90;;;;;;5010334;28;20214;-65
2022/09/08 04:47:29;;;;;;;5.83;5.33;;;19.40;99.90;;;;;;5010855;28;20450;-71
2022/09/08 04:49:55;;;;;;;8.67;7.87;;;19.40;99.90;;;;;;5011325;28;20457;-66
2022/09/08 04:52:24;;;;;;;7.40;6.90;;;19.20;99.90;;;;;;5010486;28;20465;-66
2022/09/08 04:54:50;;;;;;;6.37;5.60;;;19.20;99.90;;;;;;5010147;28;20233;-66
2022/09/08 04:57:16;;;;;;;6.50;6.10;;;19.40;99.90;;;;;;5012872;28;20501;-66
2022/09/08 04:59:41;;;;;;;6.77;6.20;;;19.50;99.90;;;;;;5013149;28;20198;-66
2022/09/08 05:02:07;;;;;;;7.60;6.90;;;19.70;99.90;;;;;;5012886;28;20199;-66
2022/09/08 05:04:33;;;;;;;5.70;5.30;;;19.80;99.90;;;;;;5013870;28;20548;-66
2022/09/08 05:06:59;;;;;;;6.63;5.90;;;19.80;99.90;;;;;;5014780;28;20197;-66
2022/09/08 05:09:25;;;;;;;6.33;5.73;;;19.80;99.90;;;;;;5014976;28;20980;-66
2022/09/08 05:11:50;;;;;;;6.47;5.80;;;19.80;99.90;;;;;;5013600;28;20183;-66
2022/09/08 05:14:16;;;;;;;6.97;6.37;;;19.90;99.90;;;;;;5014764;28;20737;-66
2022/09/08 05:16:42;;;;;;;5.23;4.83;;;19.90;99.90;;;;;;5013720;28;20229;-69
2022/09/08 05:19:11;;;;;;;5.40;4.90;;;20.00;99.90;;;;;;5014038;28;20211;-66
2022/09/08 05:21:36;;;;;;;6.07;5.67;;;20.10;99.90;;;;;;5011930;28;20183;-66
2022/09/08 05:24:03;;;;;;;6.17;5.80;;;20.10;99.90;;;;;;5012661;28;20496;-66
2022/09/08 05:26:29;;;;;;;7.10;6.23;;;20.20;99.90;;;;;;5014482;28;20175;-71
2022/09/08 05:28:55;;;;;;;7.00;6.40;;;20.20;99.90;;;;;;5012375;28;20920;-65
2022/09/08 05:31:24;;;;;;;5.80;5.40;;;20.20;99.90;;;;;;5013420;28;20440;-66
2022/09/08 05:33:51;;;;;;;5.67;5.30;;;20.30;99.90;;;;;;5013549;28;20428;-66
2022/09/08 05:36:22;;;;;;;5.80;5.40;;;20.30;99.90;;;;;;4976473;28;1103107;-66
2022/09/08 05:38:48;;;;;;;6.30;5.80;;;20.30;99.90;;;;;;5014902;28;20206;-66
2022/09/08 05:41:14;;;;;;;6.10;5.60;;;20.30;99.90;;;;;;5014113;28;20910;-66
2022/09/08 05:43:40;;;;;;;6.00;5.60;;;20.40;99.90;;;;;;5014525;28;20475;-66
2022/09/08 05:46:06;;;;;;;5.90;5.50;;;20.40;99.90;;;;;;5015210;28;20929;-66
2022/09/08 05:48:33;;;;;;;6.40;5.67;;;20.40;99.90;;;;;;5014983;28;20406;-71
2022/09/08 05:50:58;;;;;;;5.20;4.90;;;20.40;99.90;;;;;;5014182;28;20488;-65
2022/09/08 05:53:25;;;;;;;7.10;5.47;;;20.40;99.90;;;;;;5015266;28;20524;-66
2022/09/08 05:56:03;;;;;;;5.50;5.00;;;20.40;99.90;;;;;;4996591;28;20431;-66
2022/09/08 05:58:30;;;;;;;5.40;5.10;;;20.40;99.90;;;;;;5008900;28;20445;-66
2022/09/08 06:01:01;;;;;;;7.13;5.40;;;20.40;99.90;;;;;;5012634;28;20555;-69
2022/09/08 06:03:27;;;;;;;6.27;5.77;;;20.40;99.90;;;;;;5015103;28;20929;-66
2022/09/08 06:05:54;;;;;;;5.37;4.97;;;20.50;99.90;;;;;;4996529;28;20813;-67
2022/09/08 06:08:23;;;;;;;5.73;5.23;;;20.60;99.90;;;;;;5006448;28;20434;-67
2022/09/08 06:10:51;;;;;;;4.87;4.67;;;20.80;99.90;;;;;;4995083;28;20403;-63
2022/09/08 06:13:17;;;;;;;4.83;4.53;;;20.90;99.90;;;;;;4995741;28;20417;-63
2022/09/08 06:15:43;;;;;;;5.43;5.10;;;20.90;99.90;;;;;;4998090;28;20426;-61
2022/09/08 06:18:08;;;;;;;6.17;5.77;;;20.90;99.90;;;;;;5001768;28;20436;-60
2022/09/08 06:20:36;;;;;;;6.30;5.90;;;20.90;99.90;;;;;;4978588;28;20466;-61
2022/09/08 06:23:02;;;;;;;6.30;5.90;;;20.90;99.90;;;;;;5013762;28;20197;-62
2022/09/08 06:25:28;;;;;;;5.73;5.40;;;20.80;99.90;;;;;;5014931;28;20414;-61
2022/09/08 06:28:04;;;;;;;6.47;5.87;;;20.80;99.90;;;;;;5014459;28;20175;-61
2022/09/08 06:30:29;;;;;;;5.80;5.40;;;20.70;99.90;;;;;;5015242;28;20209;-61
2022/09/08 06:33:02;;;;;;;6.40;6.00;;;20.70;99.90;;;;;;5014430;28;20446;-61
2022/09/08 06:35:42;;;;;;;6.43;5.97;;;20.60;99.90;;;;;;5014383;28;20261;-61
2022/09/08 06:38:15;;;;;;;6.93;6.27;;;20.60;99.90;;;;;;5014938;28;20413;-61
2022/09/08 06:40:42;;;;;;;7.33;6.73;;;20.50;99.90;;;;;;5014149;28;20482;-61
2022/09/08 06:43:18;;;;;;;7.23;6.67;;;20.40;99.90;;;;;;5014856;28;20801;-61
2022/09/08 06:45:47;;;;;;;6.70;6.20;;;20.40;99.90;;;;;;5013872;28;20897;-61
2022/09/08 06:48:22;;;;;;;7.10;6.60;;;20.30;99.90;;;;;;5014713;28;20410;-62
2022/09/08 06:51:22;;;;;;;7.83;7.23;;;20.30;99.90;;;;;;5013136;28;20444;-62
2022/09/08 06:54:08;;;;;;;7.27;6.70;;;20.20;99.90;;;;;;5013801;28;20518;-62
2022/09/08 06:56:56;;;;;;;7.70;7.00;;;20.20;99.90;;;;;;5010129;28;20767;-68
2022/09/08 06:59:51;;;;;;;6.30;5.77;;;20.20;99.90;;;;;;5000836;28;20457;-61
2022/09/08 07:02:38;;;;;;;7.60;6.40;;;20.10;99.90;;;;;;5004072;28;20496;-61
2022/09/08 07:05:13;;;;;;;7.37;6.77;;;20.20;99.90;;;;;;5003143;28;20440;-61
2022/09/08 07:07:57;;;;;;;7.30;6.70;;;20.10;99.90;;;;;;5013876;28;20732;-62
2022/09/08 07:10:33;;;;;;;6.97;6.47;;;20.10;99.90;;;;;;5013823;28;20428;-61
2022/09/08 07:13:02;;;;;;;7.70;7.00;;;20.10;99.90;;;;;;5004315;28;20407;-61
2022/09/08 07:15:36;;;;;;;6.33;5.83;;;20.10;99.90;;;;;;5011191;28;20491;-61
2022/09/08 07:18:30;;;;;;;5.43;4.97;;;20.00;99.90;;;;;;5004174;28;20445;-61
2022/09/08 07:21:20;;;;;;;6.10;5.60;;;20.10;99.90;;;;;;5008587;28;20860;-61
2022/09/08 07:23:47;;;;;;;5.63;5.17;;;20.10;99.90;;;;;;4994203;28;20491;-61
2022/09/08 07:26:16;;;;;;;5.73;5.33;;;20.10;99.90;;;;;;4982855;28;20856;-61
2022/09/08 07:28:47;;;;;;;5.90;5.50;;;20.00;99.90;;;;;;4998822;28;20427;-62
2022/09/08 07:31:21;;;;;;;5.93;5.60;;;20.00;99.90;;;;;;4999830;28;20443;-61
2022/09/08 07:33:57;;;;;;;6.77;6.30;;;20.00;99.90;;;;;;5011633;28;20437;-61
2022/09/08 07:36:47;;;;;;;6.10;5.60;;;20.00;99.90;;;;;;5011058;28;20505;-61
2022/09/08 07:39:21;;;;;;;6.30;6.00;;;20.00;99.90;;;;;;5013674;28;20449;-61
2022/09/08 07:41:49;;;;;;;6.70;6.30;;;20.10;99.90;;;;;;4995183;28;20438;-61
2022/09/08 07:44:18;;;;;;;6.63;6.23;;;20.10;99.90;;;;;;5006555;28;20433;-62
2022/09/08 07:46:49;;;;;;;7.10;6.70;;;20.10;99.90;;;;;;4993136;28;20430;-62
2022/09/08 07:49:42;;;;;;;7.50;6.90;;;20.10;99.90;;;;;;5006320;28;20999;-61
2022/09/08 07:52:26;;;;;;;8.07;7.27;;;20.00;99.90;;;;;;5010127;28;20493;-62
2022/09/08 07:55:17;;;;;;;7.60;7.00;;;20.10;99.90;;;;;;4993289;28;20732;-61
2022/09/08 07:57:57;;;;;;;6.30;6.00;;;20.00;99.90;;;;;;4958656;28;20434;-61
2022/09/08 08:00:34;;;;;;;6.10;5.70;;;20.10;99.90;;;;;;5001181;28;20497;-61
2022/09/08 08:03:16;;;;;;;6.30;5.80;;;20.00;99.90;;;;;;5012838;28;20885;-61
2022/09/08 08:06:20;;;;;;;5.63;5.33;;;20.10;99.90;;;;;;4977978;28;20425;-61
2022/09/08 08:08:55;;;;;;;5.60;5.30;;;20.10;99.90;;;;;;4999561;28;20429;-61
2022/09/08 08:11:26;;;;;;;6.33;5.83;;;20.10;99.90;;;;;;4971960;28;20407;-61
2022/09/08 08:14:17;;;;;;;6.30;5.90;;;20.10;99.90;;;;;;4950920;28;20428;-61
2022/09/08 08:16:45;;;;;;;5.80;5.50;;;20.20;99.90;;;;;;4970106;28;20447;-61
2022/09/08 08:19:52;;;;;;;5.80;5.20;;;20.20;99.90;;;;;;4971054;28;20471;-61
2022/09/08 08:22:29;;;;;;;5.40;5.10;;;20.20;99.90;;;;;;4951066;28;20432;-61
2022/09/08 08:25:20;;;;;;;5.93;5.47;;;20.20;99.90;;;;;;4971228;28;20419;-61
2022/09/08 08:28:10;;;;;;;5.40;5.00;;;20.10;99.90;;;;;;4971224;28;20899;-61
2022/09/08 08:30:57;;;;;;;5.37;4.97;;;20.20;99.90;;;;;;4971574;28;20800;-61
2022/09/08 08:33:35;;;;;;;6.30;5.00;;;20.10;99.90;;;;;;4971650;28;20408;-61
2022/09/08 08:36:12;;;;;;;6.07;5.67;;;20.20;99.90;;;;;;4980067;28;20467;-61
2022/09/08 08:39:01;;;;;;;6.33;6.03;;;20.20;99.90;;;;;;4990889;28;20403;-61
2022/09/08 08:41:45;;;;;;;7.00;6.40;;;20.20;99.90;;;;;;4991413;28;20434;-62
2022/09/08 08:44:22;;;;;;;6.33;5.80;;;20.20;99.90;;;;;;5012883;28;20464;-61
2022/09/08 08:47:08;;;;;;;5.40;4.90;;;20.10;99.90;;;;;;5012261;28;20870;-61
2022/09/08 08:49:58;;;;;;;4.60;4.40;;;20.10;99.90;;;;;;5004733;28;20414;-61
2022/09/08 08:52:45;;;;;;;5.20;4.70;;;20.10;99.90;;;;;;5008759;28;20929;-61
2022/09/08 08:55:48;;;;;;;4.47;4.27;;;20.00;99.90;;;;;;4993395;28;20419;-61
2022/09/08 08:58:32;;;;;;;4.10;3.80;;;19.90;99.90;;;;;;4992515;28;20909;-62
2022/09/08 09:01:11;;;;;;;5.43;5.13;;;19.90;99.90;;;;;;5006725;28;21002;-61
2022/09/08 09:04:11;;;;;;;4.60;4.40;;;19.80;99.90;;;;;;5012054;28;20778;-62
2022/09/08 09:06:39;;;;;;;4.53;4.30;;;19.80;99.90;;;;;;5012936;28;20505;-61
2022/09/08 09:09:38;;;;;;;3.97;3.67;;;19.80;99.90;;;;;;5012017;28;20434;-62
2022/09/08 09:12:23;;;;;;;3.53;3.23;;;19.80;99.90;;;;;;4988297;28;20435;-65
2022/09/08 09:15:03;;;;;;;5.50;4.30;;;19.90;99.90;;;;;;5002302;28;20441;-62
2022/09/08 09:18:00;;;;;;;4.40;4.10;;;19.90;99.90;;;;;;5010609;28;20444;-62
2022/09/08 09:20:37;;;;;;;4.80;4.40;;;19.90;99.90;;;;;;4992809;28;20505;-61
2022/09/08 09:23:21;;;;;;;4.73;4.40;;;19.90;99.90;;;;;;4992311;28;20422;-62
2022/09/08 09:25:59;;;;;;;4.40;4.10;;;19.90;99.90;;;;;;4992288;28;20415;-62
2022/09/08 09:28:54;;;;;;;4.10;3.80;;;20.00;99.90;;;;;;4992666;28;20400;-61
2022/09/08 09:31:38;;;;;;;4.23;4.03;;;20.00;99.90;;;;;;5008016;28;20437;-62
2022/09/08 09:34:18;;;;;;;4.60;4.20;;;20.00;99.90;;;;;;5011560;28;20761;-61
2022/09/08 09:37:42;;;;;;;5.57;5.13;;;20.00;99.90;;;;;;4988231;28;20458;-61
2022/09/08 09:40:32;;;;;;;4.20;4.00;;;20.00;99.90;;;;;;4941278;28;20508;-61
2022/09/08 09:43:13;;;;;;;4.00;3.70;;;20.00;99.90;;;;;;4990769;28;20473;-62
2022/09/08 09:46:02;;;;;;;4.37;4.00;;;19.90;99.90;;;;;;4929736;28;20415;-61
2022/09/08 09:48:55;;;;;;;3.87;3.57;;;20.00;99.90;;;;;;4994018;28;20527;-62
2022/09/08 09:51:49;;;;;;;4.20;4.00;;;20.00;99.90;;;;;;4980209;28;20489;-62
2022/09/08 09:54:21;;;;;;;3.57;3.33;;;20.00;99.90;;;;;;4993774;28;20856;-61
2022/09/08 09:57:12;;;;;;;4.90;4.60;;;20.00;99.90;;;;;;4993266;28;20770;-62
2022/09/08 10:00:04;;;;;;;4.40;4.00;;;20.10;99.90;;;;;;4991995;28;20462;-62
2022/09/08 10:03:07;;;;;;;3.73;3.23;;;20.10;99.90;;;;;;4993675;28;20431;-61
2022/09/08 10:06:10;;;;;;;3.20;3.00;;;20.10;99.90;;;;;;4993523;28;20901;-61
2022/09/08 10:09:13;;;;;;;3.73;3.53;;;20.20;99.90;;;;;;4995238;28;20411;-61
2022/09/08 10:11:55;;;;;;;4.13;3.83;;;20.20;99.90;;;;;;4995808;28;20603;-62
2022/09/08 10:14:47;;;;;;;4.10;3.80;;;20.20;99.90;;;;;;4995858;28;20426;-61
2022/09/08 10:17:15;;;;;;;4.67;4.37;;;20.30;99.90;;;;;;4986033;28;20474;-62
2022/09/08 10:20:03;;;;;;;4.07;3.87;;;20.30;99.90;;;;;;4995580;28;20839;-61
2022/09/08 10:22:40;;;;;;;4.57;4.30;;;20.40;99.90;;;;;;4995963;28;20415;-62
2022/09/08 10:25:12;;;;;;;3.90;3.70;;;20.70;99.90;;;;;;4994972;28;20835;-62
2022/09/08 10:28:04;;;;;;;4.70;4.40;;;20.80;99.90;;;;;;4995633;28;20953;-62
2022/09/08 10:31:00;;;;;;;4.93;4.63;;;21.00;99.90;;;;;;5007173;28;20796;-61
2022/09/08 10:34:19;;;;;;;4.80;4.50;;;21.10;99.90;;;;;;5014222;28;20430;-62
2022/09/08 10:36:59;;;;;;;5.60;5.10;;;21.20;99.90;;;;;;4954233;29;20456;-62
2022/09/08 10:39:40;;;;;;;4.40;4.10;;;21.30;99.90;;;;;;5014927;28;20438;-61
2022/09/08 10:42:42;;;;;;;4.47;4.17;;;21.40;99.90;;;;;;5013165;28;20873;-61
2022/09/08 10:45:45;;;;;;;3.80;3.60;;;21.60;99.90;;;;;;5013106;28;20405;-62
2022/09/08 10:48:32;;;;;;;3.83;3.63;;;21.70;99.90;;;;;;5014128;28;20452;-62
2022/09/08 10:51:28;;;;;;;4.50;4.20;;;22.00;99.90;;;;;;5014086;28;20781;-62
2022/09/08 10:54:14;;;;;;;3.90;3.70;;;22.30;99.90;;;;;;5013340;28;20406;-62
2022/09/08 10:56:42;;;;;;;6.67;3.87;;;22.50;99.90;;;;;;5014532;28;20417;-62
2022/09/08 10:59:56;;;;;;;3.80;3.60;;;22.60;99.90;;;;;;5013134;28;20870;-63
2022/09/08 11:02:41;;;;;;;3.87;3.57;;;22.70;99.90;;;;;;4997603;28;20913;-62
2022/09/08 11:05:34;;;;;;;4.17;3.87;;;22.90;99.90;;;;;;5012603;28;20524;-61
2022/09/08 11:08:11;;;;;;;3.90;3.60;;;23.10;99.90;;;;;;5013812;28;20415;-61
2022/09/08 11:10:58;;;;;;;4.57;4.37;;;23.30;99.90;;;;;;5014244;28;20433;-61
2022/09/08 11:13:25;;;;;;;3.90;3.50;;;23.50;99.90;;;;;;5014406;28;20407;-61
2022/09/08 11:16:29;;;;;;;4.37;4.17;;;23.70;99.60;;;;;;5013631;28;20456;-62
2022/09/08 11:19:28;;;;;;;4.23;4.03;;;23.80;97.60;;;;;;4994990;28;20776;-62
2022/09/08 11:22:15;;;;;;;5.10;4.70;;;23.80;97.60;;;;;;5013587;28;20414;-62
2022/09/08 11:24:52;;;;;;;4.07;3.87;;;23.80;97.50;;;;;;5014148;28;20398;-62
2022/09/08 11:27:39;;;;;;;4.20;4.00;;;23.60;97.50;;;;;;5014076;28;20409;-62
2022/09/08 11:30:17;;;;;;;5.03;4.80;;;23.50;98.10;;;;;;5012521;28;20933;-62
2022/09/08 11:32:46;;;;;;;4.50;4.20;;;23.30;97.90;;;;;;5013087;28;20429;-61
2022/09/08 11:35:31;;;;;;;5.27;4.97;;;23.20;98.30;;;;;;5013124;28;20798;-61
2022/09/08 11:38:16;;;;;;;5.60;5.40;;;23.40;99.80;;;;;;5012932;28;20897;-62
2022/09/08 11:41:26;;;;;;;4.97;4.73;;;23.40;97.90;;;;;;5013734;28;20549;-61
2022/09/08 11:44:03;;;;;;;4.77;4.57;;;23.50;97.80;;;;;;5013167;28;20414;-62
2022/09/08 11:47:03;;;;;;;4.90;4.60;;;23.40;95.30;;;;;;5013778;28;20415;-62
2022/09/08 11:49:32;;;;;;;4.73;4.43;;;23.30;95.60;;;;;;4972293;28;20411;-61
2022/09/08 11:51:58;;;;;;;3.87;3.67;;;23.40;96.10;;;;;;4971584;28;20847;-61
2022/09/08 11:54:54;;;;;;;3.83;3.53;;;23.50;96.10;;;;;;4939940;28;20463;-61
2022/09/08 11:57:26;;;;;;;3.40;3.20;;;23.60;95.80;;;;;;4972246;28;20172;-62
2022/09/08 12:00:26;;;;;;;4.67;4.30;;;23.60;94.50;;;;;;4971854;28;20462;-69
2022/09/08 12:03:29;;;;;;;4.60;3.20;;;23.60;94.60;;;;;;4971201;28;20446;-69
2022/09/08 12:06:19;;;;;;;4.33;4.03;;;23.50;95.30;;;;;;4935735;29;20917;-62
2022/09/08 12:09:17;;;;;;;3.37;3.27;;;23.40;95.20;;;;;;4952734;29;20409;-62
2022/09/08 12:12:04;;;;;;;6.40;3.27;;;23.30;94.80;;;;;;4952619;29;20424;-61
2022/09/08 12:14:54;;;;;;;3.40;3.20;;;23.30;95.90;;;;;;4952751;29;20425;-61
2022/09/08 12:17:52;;;;;;;3.20;3.10;;;23.30;95.60;;;;;;4952730;29;20405;-61
2022/09/08 12:20:46;;;;;;;4.10;4.00;;;23.50;94.70;;;;;;4937134;28;21025;-62
2022/09/08 12:23:50;;;;;;;4.27;3.77;;;23.50;94.40;;;;;;4993034;28;20932;-61
2022/09/08 12:26:30;;;;;;;3.13;3.03;;;23.50;95.10;;;;;;4991677;28;20430;-62
2022/09/08 12:29:06;;;;;;;2.77;2.67;;;23.50;95.00;;;;;;4960552;28;20795;-62
2022/09/08 12:31:59;;;;;;;4.37;4.17;;;23.50;93.50;;;;;;5013035;28;20456;-62
2022/09/08 12:34:50;;;;;;;3.00;2.83;;;23.50;93.80;;;;;;5012515;28;20971;-62
2022/09/08 12:37:34;;;;;;;4.03;3.77;;;23.30;92.70;;;;;;5012178;28;20799;-61
2022/09/08 12:40:35;;;;;;;2.70;2.60;;;23.30;91.80;;;;;;5012227;28;20457;-62
2022/09/08 12:43:10;;;;;;;3.03;2.87;;;23.30;92.50;;;;;;4995289;28;20464;-62
2022/09/08 12:45:54;;;;;;;3.00;2.90;;;23.40;93.10;;;;;;5012841;28;20413;-62
2022/09/08 12:48:34;;;;;;;2.63;2.53;;;23.40;92.20;;;;;;5012933;28;20386;-62
2022/09/08 12:51:32;;;;;;;3.40;3.30;;;23.50;93.20;;;;;;5011255;28;20437;-62
2022/09/08 12:54:18;;;;;;;4.17;3.97;;;23.40;92.60;;;;;;5007583;28;20485;-62
2022/09/08 12:56:50;;;;;;;2.43;2.23;;;23.40;92.50;;;;;;5012772;28;20390;-61
2022/09/08 12:59:42;;;;;;;2.60;2.40;;;23.30;92.90;;;;;;5012064;28;20457;-62
2022/09/08 13:02:38;;;;;;;2.70;2.60;;;23.20;92.90;;;;;;4970771;28;20408;-62
2022/09/08 13:05:35;;;;;;;3.00;2.80;;;23.10;93.60;;;;;;4970721;28;20408;-62
2022/09/08 13:08:08;;;;;;;3.80;3.70;;;23.00;93.20;;;;;;4970652;28;20436;-62
2022/09/08 13:10:39;;;;;;;3.33;3.13;;;22.90;93.30;;;;;;4971450;28;20416;-61
2022/09/08 13:13:25;;;;;;;2.87;2.67;;;22.90;93.20;;;;;;4970748;28;20407;-62
2022/09/08 13:16:40;;;;;;;3.83;3.73;;;22.80;93.50;;;;;;4955170;28;20424;-62
2022/09/08 13:19:32;;;;;;;4.20;3.90;;;22.80;93.30;;;;;;4935197;29;20460;-61
2022/09/08 13:21:57;;;;;;;5.00;4.80;;;22.70;93.60;;;;;;4955262;28;20460;-63
2022/09/08 13:24:44;;;;;;;3.47;3.27;;;22.60;93.70;;;;;;4955587;29;20570;-61
2022/09/08 13:27:19;;;;;;;4.13;3.83;;;22.60;93.80;;;;;;4954965;29;20185;-61
2022/09/08 13:30:08;;;;;;;4.50;4.30;;;22.50;93.90;;;;;;4955563;29;20515;-61
2022/09/08 13:33:17;;;;;;;3.67;3.47;;;22.60;93.80;;;;;;4965987;28;20423;-62